sensor_id;sensor_type;location;lat;lon;timestamp;temperature;humidity
1570;DHT22;778;50.120;8.698;2023-06-14T00:00:07;20.30;56.30
1570;DHT22;778;50.120;8.698;2023-06-14T00:02:36;20.30;56.50
1570;DHT22;778;50.120;8.698;2023-06-14T00:05:05;20.20;56.60
1570;DHT22;778;50.120;8.698;2023-06-14T00:07:36;20.10;56.60
1570;DHT22;778;50.120;8.698;2023-06-14T00:10:10;20.10;56.60
1570;DHT22;778;50.120;8.698;2023-06-14T00:12:39;20.20;57.10
1570;DHT22;778;50.120;8.698;2023-06-14T00:15:08;20.10;56.70
1570;DHT22;778;50.120;8.698;2023-06-14T00:17:37;20.10;56.70
1570;DHT22;778;50.120;8.698;2023-06-14T00:20:07;20.10;56.70
1570;DHT22;778;50.120;8.698;2023-06-14T00:22:38;20.00;56.90
1570;DHT22;778;50.120;8.698;2023-06-14T00:25:07;20.00;56.90
1570;DHT22;778;50.120;8.698;2023-06-14T00:27:54;20.00;57.10
1570;DHT22;778;50.120;8.698;2023-06-14T00:30:23;19.90;57.10
1570;DHT22;778;50.120;8.698;2023-06-14T00:32:52;19.90;57.20
1570;DHT22;778;50.120;8.698;2023-06-14T00:35:20;19.90;57.40
1570;DHT22;778;50.120;8.698;2023-06-14T00:37:50;19.80;57.40
1570;DHT22;778;50.120;8.698;2023-06-14T00:40:19;19.80;57.50
1570;DHT22;778;50.120;8.698;2023-06-14T00:42:47;19.70;57.50
1570;DHT22;778;50.120;8.698;2023-06-14T00:45:16;19.70;57.60
1570;DHT22;778;50.120;8.698;2023-06-14T00:47:45;19.50;57.80
1570;DHT22;778;50.120;8.698;2023-06-14T00:50:15;19.50;57.80
1570;DHT22;778;50.120;8.698;2023-06-14T00:52:44;19.50;57.80
1570;DHT22;778;50.120;8.698;2023-06-14T00:55:14;19.50;57.80
1570;DHT22;778;50.120;8.698;2023-06-14T00:57:42;19.50;58.10
1570;DHT22;778;50.120;8.698;2023-06-14T01:00:13;19.50;58.10
1570;DHT22;778;50.120;8.698;2023-06-14T01:02:42;19.40;57.90
1570;DHT22;778;50.120;8.698;2023-06-14T01:05:11;19.40;58.10
1570;DHT22;778;50.120;8.698;2023-06-14T01:07:51;19.40;58.10
1570;DHT22;778;50.120;8.698;2023-06-14T01:10:34;19.40;58.10
1570;DHT22;778;50.120;8.698;2023-06-14T01:13:10;19.30;58.10
1570;DHT22;778;50.120;8.698;2023-06-14T01:15:44;19.40;58.20
1570;DHT22;778;50.120;8.698;2023-06-14T01:18:12;19.30;58.30
1570;DHT22;778;50.120;8.698;2023-06-14T01:20:45;19.20;58.40
1570;DHT22;778;50.120;8.698;2023-06-14T01:23:18;19.20;58.60
1570;DHT22;778;50.120;8.698;2023-06-14T01:25:48;19.10;58.60
1570;DHT22;778;50.120;8.698;2023-06-14T01:28:21;19.10;58.70
1570;DHT22;778;50.120;8.698;2023-06-14T01:30:52;19.10;59.00
1570;DHT22;778;50.120;8.698;2023-06-14T01:33:24;19.00;59.00
1570;DHT22;778;50.120;8.698;2023-06-14T01:35:58;18.90;59.10
1570;DHT22;778;50.120;8.698;2023-06-14T01:38:31;18.90;59.30
1570;DHT22;778;50.120;8.698;2023-06-14T01:41:00;18.80;59.30
1570;DHT22;778;50.120;8.698;2023-06-14T01:43:30;18.90;59.40
1570;DHT22;778;50.120;8.698;2023-06-14T01:46:00;18.90;59.40
1570;DHT22;778;50.120;8.698;2023-06-14T01:48:28;18.70;59.60
1570;DHT22;778;50.120;8.698;2023-06-14T01:50:57;18.70;59.80
1570;DHT22;778;50.120;8.698;2023-06-14T01:53:25;18.70;59.60
1570;DHT22;778;50.120;8.698;2023-06-14T01:55:56;18.70;59.70
1570;DHT22;778;50.120;8.698;2023-06-14T01:58:24;18.80;59.70
1570;DHT22;778;50.120;8.698;2023-06-14T02:00:53;18.80;59.70
1570;DHT22;778;50.120;8.698;2023-06-14T02:03:23;18.70;59.80
1570;DHT22;778;50.120;8.698;2023-06-14T02:05:52;18.70;60.00
1570;DHT22;778;50.120;8.698;2023-06-14T02:08:21;18.70;60.00
1570;DHT22;778;50.120;8.698;2023-06-14T02:10:50;18.70;60.00
1570;DHT22;778;50.120;8.698;2023-06-14T02:13:22;18.60;60.10
1570;DHT22;778;50.120;8.698;2023-06-14T02:15:51;18.60;60.40
1570;DHT22;778;50.120;8.698;2023-06-14T02:18:22;18.60;60.30
1570;DHT22;778;50.120;8.698;2023-06-14T02:20:51;18.50;60.60
1570;DHT22;778;50.120;8.698;2023-06-14T02:23:19;18.40;60.60
1570;DHT22;778;50.120;8.698;2023-06-14T02:25:48;18.30;61.00
1570;DHT22;778;50.120;8.698;2023-06-14T02:28:17;18.20;61.00
1570;DHT22;778;50.120;8.698;2023-06-14T02:30:46;18.30;61.20
1570;DHT22;778;50.120;8.698;2023-06-14T02:33:15;18.30;61.30
1570;DHT22;778;50.120;8.698;2023-06-14T02:35:44;18.30;61.10
1570;DHT22;778;50.120;8.698;2023-06-14T02:38:13;18.40;62.00
1570;DHT22;778;50.120;8.698;2023-06-14T02:40:42;18.40;61.30
1570;DHT22;778;50.120;8.698;2023-06-14T02:43:10;18.20;61.40
1570;DHT22;778;50.120;8.698;2023-06-14T02:45:38;18.30;61.70
1570;DHT22;778;50.120;8.698;2023-06-14T02:48:08;18.20;61.60
1570;DHT22;778;50.120;8.698;2023-06-14T02:50:40;18.20;61.70
1570;DHT22;778;50.120;8.698;2023-06-14T02:53:08;18.00;61.80
1570;DHT22;778;50.120;8.698;2023-06-14T02:55:37;18.10;62.20
1570;DHT22;778;50.120;8.698;2023-06-14T02:58:08;18.00;62.10
1570;DHT22;778;50.120;8.698;2023-06-14T03:00:37;17.90;62.20
1570;DHT22;778;50.120;8.698;2023-06-14T03:03:06;17.90;62.70
1570;DHT22;778;50.120;8.698;2023-06-14T03:05:44;17.90;62.90
1570;DHT22;778;50.120;8.698;2023-06-14T03:08:16;17.80;62.90
1570;DHT22;778;50.120;8.698;2023-06-14T03:10:49;17.80;62.90
1570;DHT22;778;50.120;8.698;2023-06-14T03:13:18;17.70;63.30
1570;DHT22;778;50.120;8.698;2023-06-14T03:15:49;17.60;63.50
1570;DHT22;778;50.120;8.698;2023-06-14T03:18:19;17.60;63.60
1570;DHT22;778;50.120;8.698;2023-06-14T03:20:55;17.60;63.70
1570;DHT22;778;50.120;8.698;2023-06-14T03:23:26;17.40;63.90
1570;DHT22;778;50.120;8.698;2023-06-14T03:25:55;17.50;64.20
1570;DHT22;778;50.120;8.698;2023-06-14T03:28:24;17.50;65.50
1570;DHT22;778;50.120;8.698;2023-06-14T03:30:54;17.50;66.00
1570;DHT22;778;50.120;8.698;2023-06-14T03:33:24;17.60;65.40
1570;DHT22;778;50.120;8.698;2023-06-14T03:35:55;17.60;65.90
1570;DHT22;778;50.120;8.698;2023-06-14T03:38:24;17.70;65.80
1570;DHT22;778;50.120;8.698;2023-06-14T03:40:53;17.70;66.20
1570;DHT22;778;50.120;8.698;2023-06-14T03:43:21;17.80;65.30
1570;DHT22;778;50.120;8.698;2023-06-14T03:45:50;17.70;65.40
1570;DHT22;778;50.120;8.698;2023-06-14T03:48:19;17.70;66.20
1570;DHT22;778;50.120;8.698;2023-06-14T03:50:48;17.70;65.50
1570;DHT22;778;50.120;8.698;2023-06-14T03:53:18;17.70;65.60
1570;DHT22;778;50.120;8.698;2023-06-14T03:55:49;17.80;65.90
1570;DHT22;778;50.120;8.698;2023-06-14T03:58:28;17.60;66.10
1570;DHT22;778;50.120;8.698;2023-06-14T04:00:56;17.60;66.20
1570;DHT22;778;50.120;8.698;2023-06-14T04:03:26;17.40;66.70
1570;DHT22;778;50.120;8.698;2023-06-14T04:05:57;17.50;67.30
1570;DHT22;778;50.120;8.698;2023-06-14T04:08:28;17.70;66.70
1570;DHT22;778;50.120;8.698;2023-06-14T04:10:58;17.80;66.20
1570;DHT22;778;50.120;8.698;2023-06-14T04:13:26;17.90;66.30
1570;DHT22;778;50.120;8.698;2023-06-14T04:15:54;18.00;66.20
1570;DHT22;778;50.120;8.698;2023-06-14T04:18:29;18.00;65.90
1570;DHT22;778;50.120;8.698;2023-06-14T04:20:57;17.90;66.00
1570;DHT22;778;50.120;8.698;2023-06-14T04:23:27;18.10;66.00
1570;DHT22;778;50.120;8.698;2023-06-14T04:25:57;18.20;65.70
1570;DHT22;778;50.120;8.698;2023-06-14T04:28:29;18.30;65.80
1570;DHT22;778;50.120;8.698;2023-06-14T04:31:00;18.30;65.50
1570;DHT22;778;50.120;8.698;2023-06-14T04:33:31;18.50;65.60
1570;DHT22;778;50.120;8.698;2023-06-14T04:36:00;18.50;65.50
1570;DHT22;778;50.120;8.698;2023-06-14T04:38:29;18.60;65.60
1570;DHT22;778;50.120;8.698;2023-06-14T04:41:01;18.60;65.70
1570;DHT22;778;50.120;8.698;2023-06-14T04:43:31;18.60;65.90
1570;DHT22;778;50.120;8.698;2023-06-14T04:46:06;18.90;65.50
1570;DHT22;778;50.120;8.698;2023-06-14T04:48:40;18.80;65.00
1570;DHT22;778;50.120;8.698;2023-06-14T04:51:10;18.90;65.50
1570;DHT22;778;50.120;8.698;2023-06-14T04:53:41;18.90;65.10
1570;DHT22;778;50.120;8.698;2023-06-14T04:56:11;19.10;65.30
1570;DHT22;778;50.120;8.698;2023-06-14T04:58:40;19.30;65.40
1570;DHT22;778;50.120;8.698;2023-06-14T05:01:09;19.10;65.10
1570;DHT22;778;50.120;8.698;2023-06-14T05:03:38;19.00;65.00
1570;DHT22;778;50.120;8.698;2023-06-14T05:06:06;19.00;65.70
1570;DHT22;778;50.120;8.698;2023-06-14T05:08:35;19.30;65.80
1570;DHT22;778;50.120;8.698;2023-06-14T05:11:05;19.50;65.30
1570;DHT22;778;50.120;8.698;2023-06-14T05:13:33;19.60;65.70
1570;DHT22;778;50.120;8.698;2023-06-14T05:16:02;19.60;65.40
1570;DHT22;778;50.120;8.698;2023-06-14T05:18:31;19.70;66.10
1570;DHT22;778;50.120;8.698;2023-06-14T05:21:01;19.60;65.30
1570;DHT22;778;50.120;8.698;2023-06-14T05:23:30;19.70;65.60
1570;DHT22;778;50.120;8.698;2023-06-14T05:25:59;20.00;65.30
1570;DHT22;778;50.120;8.698;2023-06-14T05:28:31;20.40;65.50
1570;DHT22;778;50.120;8.698;2023-06-14T05:30:59;20.30;65.00
1570;DHT22;778;50.120;8.698;2023-06-14T05:33:27;20.40;64.80
1570;DHT22;778;50.120;8.698;2023-06-14T05:35:56;20.30;64.60
1570;DHT22;778;50.120;8.698;2023-06-14T05:38:25;20.40;64.90
1570;DHT22;778;50.120;8.698;2023-06-14T05:40:53;20.50;65.00
1570;DHT22;778;50.120;8.698;2023-06-14T05:43:22;20.50;65.10
1570;DHT22;778;50.120;8.698;2023-06-14T05:45:52;20.50;65.90
1570;DHT22;778;50.120;8.698;2023-06-14T05:48:20;20.60;65.20
1570;DHT22;778;50.120;8.698;2023-06-14T05:50:48;20.70;65.30
1570;DHT22;778;50.120;8.698;2023-06-14T05:53:17;20.90;64.80
1570;DHT22;778;50.120;8.698;2023-06-14T05:55:46;20.90;63.90
1570;DHT22;778;50.120;8.698;2023-06-14T05:58:14;21.20;64.50
1570;DHT22;778;50.120;8.698;2023-06-14T06:00:42;21.60;63.40
1570;DHT22;778;50.120;8.698;2023-06-14T06:03:12;21.70;62.80
1570;DHT22;778;50.120;8.698;2023-06-14T06:05:41;21.80;62.00
1570;DHT22;778;50.120;8.698;2023-06-14T06:08:09;21.70;63.00
1570;DHT22;778;50.120;8.698;2023-06-14T06:10:38;21.50;62.60
1570;DHT22;778;50.120;8.698;2023-06-14T06:13:06;21.40;62.60
1570;DHT22;778;50.120;8.698;2023-06-14T06:15:37;21.30;64.30
1570;DHT22;778;50.120;8.698;2023-06-14T06:18:06;21.40;63.00
1570;DHT22;778;50.120;8.698;2023-06-14T06:20:36;21.60;64.00
1570;DHT22;778;50.120;8.698;2023-06-14T06:23:04;22.10;62.60
1570;DHT22;778;50.120;8.698;2023-06-14T06:25:33;21.90;62.90
1570;DHT22;778;50.120;8.698;2023-06-14T06:28:01;22.10;62.80
1570;DHT22;778;50.120;8.698;2023-06-14T06:30:29;22.10;61.90
1570;DHT22;778;50.120;8.698;2023-06-14T06:32:58;22.30;65.00
1570;DHT22;778;50.120;8.698;2023-06-14T06:35:26;22.20;62.80
1570;DHT22;778;50.120;8.698;2023-06-14T06:37:57;22.40;62.80
1570;DHT22;778;50.120;8.698;2023-06-14T06:40:25;22.50;62.90
1570;DHT22;778;50.120;8.698;2023-06-14T06:42:54;22.70;63.30
1570;DHT22;778;50.120;8.698;2023-06-14T06:45:26;22.60;61.40
1570;DHT22;778;50.120;8.698;2023-06-14T06:47:54;22.50;61.70
1570;DHT22;778;50.120;8.698;2023-06-14T06:50:23;22.50;62.30
1570;DHT22;778;50.120;8.698;2023-06-14T06:52:52;22.50;63.60
1570;DHT22;778;50.120;8.698;2023-06-14T06:55:22;22.60;61.70
1570;DHT22;778;50.120;8.698;2023-06-14T06:57:50;22.50;62.10
1570;DHT22;778;50.120;8.698;2023-06-14T07:00:21;22.60;61.80
1570;DHT22;778;50.120;8.698;2023-06-14T07:02:52;22.60;62.00
1570;DHT22;778;50.120;8.698;2023-06-14T07:05:22;22.60;62.30
1570;DHT22;778;50.120;8.698;2023-06-14T07:07:50;23.00;61.90
1570;DHT22;778;50.120;8.698;2023-06-14T07:10:22;22.80;61.30
1570;DHT22;778;50.120;8.698;2023-06-14T07:12:51;22.90;60.30
1570;DHT22;778;50.120;8.698;2023-06-14T07:15:19;22.80;60.20
1570;DHT22;778;50.120;8.698;2023-06-14T07:17:48;23.10;59.90
1570;DHT22;778;50.120;8.698;2023-06-14T07:20:17;22.90;59.30
1570;DHT22;778;50.120;8.698;2023-06-14T07:22:46;23.00;60.40
1570;DHT22;778;50.120;8.698;2023-06-14T07:25:14;23.30;59.50
1570;DHT22;778;50.120;8.698;2023-06-14T07:27:46;23.50;59.80
1570;DHT22;778;50.120;8.698;2023-06-14T07:30:15;23.30;59.70
1570;DHT22;778;50.120;8.698;2023-06-14T07:32:43;23.50;59.60
1570;DHT22;778;50.120;8.698;2023-06-14T07:35:12;24.00;61.10
1570;DHT22;778;50.120;8.698;2023-06-14T07:37:41;24.30;58.70
1570;DHT22;778;50.120;8.698;2023-06-14T07:40:10;24.10;58.40
1570;DHT22;778;50.120;8.698;2023-06-14T07:42:39;23.90;58.60
1570;DHT22;778;50.120;8.698;2023-06-14T07:45:11;23.80;58.10
1570;DHT22;778;50.120;8.698;2023-06-14T07:47:41;23.60;58.20
1570;DHT22;778;50.120;8.698;2023-06-14T07:50:11;24.00;58.50
1570;DHT22;778;50.120;8.698;2023-06-14T07:52:39;23.40;59.50
1570;DHT22;778;50.120;8.698;2023-06-14T07:55:08;23.80;59.50
1570;DHT22;778;50.120;8.698;2023-06-14T07:57:38;23.80;59.00
1570;DHT22;778;50.120;8.698;2023-06-14T08:00:09;23.60;59.50
1570;DHT22;778;50.120;8.698;2023-06-14T08:02:42;24.10;60.40
1570;DHT22;778;50.120;8.698;2023-06-14T08:05:11;24.20;58.80
1570;DHT22;778;50.120;8.698;2023-06-14T08:07:40;24.40;59.40
1570;DHT22;778;50.120;8.698;2023-06-14T08:10:09;24.30;59.40
1570;DHT22;778;50.120;8.698;2023-06-14T08:12:38;23.70;59.40
1570;DHT22;778;50.120;8.698;2023-06-14T08:15:07;23.90;59.80
1570;DHT22;778;50.120;8.698;2023-06-14T08:17:42;24.20;59.60
1570;DHT22;778;50.120;8.698;2023-06-14T08:20:11;24.20;58.70
1570;DHT22;778;50.120;8.698;2023-06-14T08:22:42;24.50;60.10
1570;DHT22;778;50.120;8.698;2023-06-14T08:25:13;24.70;58.10
1570;DHT22;778;50.120;8.698;2023-06-14T08:27:42;24.70;58.20
1570;DHT22;778;50.120;8.698;2023-06-14T08:30:13;24.40;57.60
1570;DHT22;778;50.120;8.698;2023-06-14T08:32:44;24.50;57.90
1570;DHT22;778;50.120;8.698;2023-06-14T08:35:17;24.40;57.80
1570;DHT22;778;50.120;8.698;2023-06-14T08:37:47;24.40;57.80
1570;DHT22;778;50.120;8.698;2023-06-14T08:40:19;24.30;57.60
1570;DHT22;778;50.120;8.698;2023-06-14T08:42:51;24.20;58.20
1570;DHT22;778;50.120;8.698;2023-06-14T08:45:24;24.10;58.40
1570;DHT22;778;50.120;8.698;2023-06-14T08:47:55;23.80;58.60
1570;DHT22;778;50.120;8.698;2023-06-14T08:50:27;24.10;58.30
1570;DHT22;778;50.120;8.698;2023-06-14T08:52:59;24.10;58.20
1570;DHT22;778;50.120;8.698;2023-06-14T08:55:30;24.50;58.40
1570;DHT22;778;50.120;8.698;2023-06-14T08:58:04;24.50;58.70
1570;DHT22;778;50.120;8.698;2023-06-14T09:00:34;24.70;57.70
1570;DHT22;778;50.120;8.698;2023-06-14T09:03:05;25.10;57.80
1570;DHT22;778;50.120;8.698;2023-06-14T09:05:40;25.30;57.90
1570;DHT22;778;50.120;8.698;2023-06-14T09:08:09;24.90;55.90
1570;DHT22;778;50.120;8.698;2023-06-14T09:10:39;25.00;56.90
1570;DHT22;778;50.120;8.698;2023-06-14T09:13:08;24.80;57.50
1570;DHT22;778;50.120;8.698;2023-06-14T09:15:38;25.10;56.30
1570;DHT22;778;50.120;8.698;2023-06-14T09:18:07;24.30;56.00
1570;DHT22;778;50.120;8.698;2023-06-14T09:20:35;24.50;57.20
1570;DHT22;778;50.120;8.698;2023-06-14T09:23:05;24.40;57.60
1570;DHT22;778;50.120;8.698;2023-06-14T09:25:42;24.50;57.60
1570;DHT22;778;50.120;8.698;2023-06-14T09:28:12;25.00;57.40
1570;DHT22;778;50.120;8.698;2023-06-14T09:30:42;24.90;56.90
1570;DHT22;778;50.120;8.698;2023-06-14T09:33:10;24.60;57.10
1570;DHT22;778;50.120;8.698;2023-06-14T09:35:45;25.20;58.40
1570;DHT22;778;50.120;8.698;2023-06-14T09:38:14;25.40;56.00
1570;DHT22;778;50.120;8.698;2023-06-14T09:40:42;25.00;56.60
1570;DHT22;778;50.120;8.698;2023-06-14T09:43:11;24.90;57.70
1570;DHT22;778;50.120;8.698;2023-06-14T09:45:39;25.50;59.10
1570;DHT22;778;50.120;8.698;2023-06-14T09:48:09;24.80;56.70
1570;DHT22;778;50.120;8.698;2023-06-14T09:50:39;24.60;57.20
1570;DHT22;778;50.120;8.698;2023-06-14T09:53:11;24.30;57.90
1570;DHT22;778;50.120;8.698;2023-06-14T09:55:41;24.50;56.70
1570;DHT22;778;50.120;8.698;2023-06-14T09:58:10;25.00;56.80
1570;DHT22;778;50.120;8.698;2023-06-14T10:00:40;25.00;56.60
1570;DHT22;778;50.120;8.698;2023-06-14T10:03:14;24.30;56.00
1570;DHT22;778;50.120;8.698;2023-06-14T10:05:45;25.40;55.80
1570;DHT22;778;50.120;8.698;2023-06-14T10:08:18;25.00;57.50
1570;DHT22;778;50.120;8.698;2023-06-14T10:10:47;25.20;57.90
1570;DHT22;778;50.120;8.698;2023-06-14T10:13:16;25.40;56.60
1570;DHT22;778;50.120;8.698;2023-06-14T10:15:55;25.60;55.90
1570;DHT22;778;50.120;8.698;2023-06-14T10:18:33;25.80;55.80
1570;DHT22;778;50.120;8.698;2023-06-14T10:21:18;26.00;55.40
1570;DHT22;778;50.120;8.698;2023-06-14T10:23:50;25.60;55.50
1570;DHT22;778;50.120;8.698;2023-06-14T10:26:20;25.30;55.50
1570;DHT22;778;50.120;8.698;2023-06-14T10:28:57;25.30;55.80
1570;DHT22;778;50.120;8.698;2023-06-14T10:31:51;25.30;55.70
1570;DHT22;778;50.120;8.698;2023-06-14T10:34:26;25.40;54.90
1570;DHT22;778;50.120;8.698;2023-06-14T10:37:03;25.30;55.70
1570;DHT22;778;50.120;8.698;2023-06-14T10:39:39;25.10;56.90
1570;DHT22;778;50.120;8.698;2023-06-14T10:42:08;24.70;56.30
1570;DHT22;778;50.120;8.698;2023-06-14T10:44:45;24.80;57.90
1570;DHT22;778;50.120;8.698;2023-06-14T10:47:27;24.80;57.00
1570;DHT22;778;50.120;8.698;2023-06-14T10:50:04;25.00;56.50
1570;DHT22;778;50.120;8.698;2023-06-14T10:52:36;24.70;57.00
1570;DHT22;778;50.120;8.698;2023-06-14T10:55:11;24.50;56.40
1570;DHT22;778;50.120;8.698;2023-06-14T10:57:44;25.00;58.50
1570;DHT22;778;50.120;8.698;2023-06-14T11:00:19;25.40;57.20
1570;DHT22;778;50.120;8.698;2023-06-14T11:06:22;24.50;56.40
1570;DHT22;778;50.120;8.698;2023-06-14T11:09:19;24.30;57.20
1570;DHT22;778;50.120;8.698;2023-06-14T11:12:10;24.20;57.20
1570;DHT22;778;50.120;8.698;2023-06-14T11:14:38;24.50;57.70
1570;DHT22;778;50.120;8.698;2023-06-14T11:17:07;24.80;57.00
1570;DHT22;778;50.120;8.698;2023-06-14T11:19:35;24.70;57.70
1570;DHT22;778;50.120;8.698;2023-06-14T11:22:05;24.80;57.20
1570;DHT22;778;50.120;8.698;2023-06-14T11:24:34;24.90;57.40
1570;DHT22;778;50.120;8.698;2023-06-14T11:27:03;24.60;56.60
1570;DHT22;778;50.120;8.698;2023-06-14T11:29:33;24.50;55.90
1570;DHT22;778;50.120;8.698;2023-06-14T11:32:01;24.20;56.70
1570;DHT22;778;50.120;8.698;2023-06-14T11:34:30;24.60;57.10
1570;DHT22;778;50.120;8.698;2023-06-14T11:36:59;24.70;56.90
1570;DHT22;778;50.120;8.698;2023-06-14T11:39:29;24.80;55.90
1570;DHT22;778;50.120;8.698;2023-06-14T11:41:58;24.80;56.30
1570;DHT22;778;50.120;8.698;2023-06-14T11:44:28;24.50;56.00
1570;DHT22;778;50.120;8.698;2023-06-14T11:46:57;24.40;57.00
1570;DHT22;778;50.120;8.698;2023-06-14T11:49:25;24.40;57.60
1570;DHT22;778;50.120;8.698;2023-06-14T11:51:54;24.30;57.60
1570;DHT22;778;50.120;8.698;2023-06-14T11:54:23;24.30;57.30
1570;DHT22;778;50.120;8.698;2023-06-14T11:56:53;24.60;59.50
1570;DHT22;778;50.120;8.698;2023-06-14T11:59:22;24.10;57.30
1570;DHT22;778;50.120;8.698;2023-06-14T12:01:53;24.40;57.20
1570;DHT22;778;50.120;8.698;2023-06-14T12:04:27;24.40;55.80
1570;DHT22;778;50.120;8.698;2023-06-14T12:06:55;24.30;56.50
1570;DHT22;778;50.120;8.698;2023-06-14T12:09:24;24.10;55.60
1570;DHT22;778;50.120;8.698;2023-06-14T12:12:01;24.10;56.50
1570;DHT22;778;50.120;8.698;2023-06-14T12:14:30;23.80;57.80
1570;DHT22;778;50.120;8.698;2023-06-14T12:17:04;23.70;57.80
1570;DHT22;778;50.120;8.698;2023-06-14T12:19:41;23.80;57.00
1570;DHT22;778;50.120;8.698;2023-06-14T12:22:11;23.80;56.70
1570;DHT22;778;50.120;8.698;2023-06-14T12:24:42;23.90;57.10
1570;DHT22;778;50.120;8.698;2023-06-14T12:27:12;23.70;56.30
1570;DHT22;778;50.120;8.698;2023-06-14T12:29:43;23.50;56.10
1570;DHT22;778;50.120;8.698;2023-06-14T12:32:12;23.50;56.40
1570;DHT22;778;50.120;8.698;2023-06-14T12:34:40;23.80;56.30
1570;DHT22;778;50.120;8.698;2023-06-14T12:37:09;23.90;55.70
1570;DHT22;778;50.120;8.698;2023-06-14T12:39:37;24.00;56.80
1570;DHT22;778;50.120;8.698;2023-06-14T12:42:07;24.00;55.80
1570;DHT22;778;50.120;8.698;2023-06-14T12:44:37;24.00;55.50
1570;DHT22;778;50.120;8.698;2023-06-14T12:47:07;24.10;55.40
1570;DHT22;778;50.120;8.698;2023-06-14T12:49:36;24.00;55.00
1570;DHT22;778;50.120;8.698;2023-06-14T12:52:05;23.80;54.40
1570;DHT22;778;50.120;8.698;2023-06-14T12:54:34;23.90;54.70
1570;DHT22;778;50.120;8.698;2023-06-14T12:57:07;24.20;55.40
1570;DHT22;778;50.120;8.698;2023-06-14T12:59:38;24.30;54.60
1570;DHT22;778;50.120;8.698;2023-06-14T13:02:13;24.20;54.50
1570;DHT22;778;50.120;8.698;2023-06-14T13:04:43;24.20;55.80
1570;DHT22;778;50.120;8.698;2023-06-14T13:07:12;24.40;54.90
1570;DHT22;778;50.120;8.698;2023-06-14T13:09:42;24.30;55.40
1570;DHT22;778;50.120;8.698;2023-06-14T13:12:10;24.10;54.90
1570;DHT22;778;50.120;8.698;2023-06-14T13:14:41;24.00;55.40
1570;DHT22;778;50.120;8.698;2023-06-14T13:17:09;24.00;55.90
1570;DHT22;778;50.120;8.698;2023-06-14T13:19:39;24.00;55.20
1570;DHT22;778;50.120;8.698;2023-06-14T13:22:09;24.30;54.90
1570;DHT22;778;50.120;8.698;2023-06-14T13:24:38;24.30;55.80
1570;DHT22;778;50.120;8.698;2023-06-14T13:27:06;24.40;54.90
1570;DHT22;778;50.120;8.698;2023-06-14T13:29:35;24.50;54.60
1570;DHT22;778;50.120;8.698;2023-06-14T13:32:06;24.50;54.20
1570;DHT22;778;50.120;8.698;2023-06-14T13:34:35;24.50;55.20
1570;DHT22;778;50.120;8.698;2023-06-14T13:37:04;24.30;53.90
1570;DHT22;778;50.120;8.698;2023-06-14T13:39:32;24.30;55.00
1570;DHT22;778;50.120;8.698;2023-06-14T13:42:04;24.10;55.40
1570;DHT22;778;50.120;8.698;2023-06-14T13:44:33;23.90;55.10
1570;DHT22;778;50.120;8.698;2023-06-14T13:47:01;24.20;56.70
1570;DHT22;778;50.120;8.698;2023-06-14T13:49:31;24.30;55.70
1570;DHT22;778;50.120;8.698;2023-06-14T13:52:02;24.20;55.60
1570;DHT22;778;50.120;8.698;2023-06-14T13:54:30;24.20;56.40
1570;DHT22;778;50.120;8.698;2023-06-14T13:56:59;24.00;56.20
1570;DHT22;778;50.120;8.698;2023-06-14T13:59:27;24.10;55.80
1570;DHT22;778;50.120;8.698;2023-06-14T14:01:56;23.90;55.90
1570;DHT22;778;50.120;8.698;2023-06-14T14:04:24;23.90;55.80
1570;DHT22;778;50.120;8.698;2023-06-14T14:06:54;23.90;57.00
1570;DHT22;778;50.120;8.698;2023-06-14T14:09:23;24.00;57.70
1570;DHT22;778;50.120;8.698;2023-06-14T14:11:51;24.10;57.30
1570;DHT22;778;50.120;8.698;2023-06-14T14:14:20;24.50;57.10
1570;DHT22;778;50.120;8.698;2023-06-14T14:16:48;24.50;56.80
1570;DHT22;778;50.120;8.698;2023-06-14T14:19:18;24.50;56.60
1570;DHT22;778;50.120;8.698;2023-06-14T14:21:46;24.70;56.50
1570;DHT22;778;50.120;8.698;2023-06-14T14:24:16;24.80;56.50
1570;DHT22;778;50.120;8.698;2023-06-14T14:26:45;24.40;56.10
1570;DHT22;778;50.120;8.698;2023-06-14T14:29:15;24.50;56.30
1570;DHT22;778;50.120;8.698;2023-06-14T14:31:44;24.40;57.30
1570;DHT22;778;50.120;8.698;2023-06-14T14:34:12;24.40;57.10
1570;DHT22;778;50.120;8.698;2023-06-14T14:36:41;24.40;57.30
1570;DHT22;778;50.120;8.698;2023-06-14T14:39:11;24.40;58.40
1570;DHT22;778;50.120;8.698;2023-06-14T14:41:41;24.30;58.30
1570;DHT22;778;50.120;8.698;2023-06-14T14:44:09;24.50;59.70
1570;DHT22;778;50.120;8.698;2023-06-14T14:46:37;24.80;59.40
1570;DHT22;778;50.120;8.698;2023-06-14T14:49:06;24.70;59.20
1570;DHT22;778;50.120;8.698;2023-06-14T14:51:34;24.70;59.70
1570;DHT22;778;50.120;8.698;2023-06-14T14:54:05;24.70;58.40
1570;DHT22;778;50.120;8.698;2023-06-14T14:56:33;24.70;57.10
1570;DHT22;778;50.120;8.698;2023-06-14T14:59:06;24.80;57.00
1570;DHT22;778;50.120;8.698;2023-06-14T15:01:34;25.00;57.80
1570;DHT22;778;50.120;8.698;2023-06-14T15:04:03;24.80;57.30
1570;DHT22;778;50.120;8.698;2023-06-14T15:06:32;24.70;57.90
1570;DHT22;778;50.120;8.698;2023-06-14T15:09:06;24.60;58.60
1570;DHT22;778;50.120;8.698;2023-06-14T15:11:34;24.70;56.70
1570;DHT22;778;50.120;8.698;2023-06-14T15:14:02;24.60;56.10
1570;DHT22;778;50.120;8.698;2023-06-14T15:16:32;24.50;55.30
1570;DHT22;778;50.120;8.698;2023-06-14T15:19:01;24.80;56.00
1570;DHT22;778;50.120;8.698;2023-06-14T15:21:29;24.80;54.40
1570;DHT22;778;50.120;8.698;2023-06-14T15:23:58;24.80;54.80
1570;DHT22;778;50.120;8.698;2023-06-14T15:26:26;24.90;54.20
1570;DHT22;778;50.120;8.698;2023-06-14T15:28:56;24.80;54.60
1570;DHT22;778;50.120;8.698;2023-06-14T15:31:24;24.80;54.90
1570;DHT22;778;50.120;8.698;2023-06-14T15:33:56;24.80;55.30
1570;DHT22;778;50.120;8.698;2023-06-14T15:36:25;24.90;56.00
1570;DHT22;778;50.120;8.698;2023-06-14T15:38:53;24.80;56.90
1570;DHT22;778;50.120;8.698;2023-06-14T15:41:21;24.90;56.40
1570;DHT22;778;50.120;8.698;2023-06-14T15:43:50;25.00;57.00
1570;DHT22;778;50.120;8.698;2023-06-14T15:46:21;25.10;57.20
1570;DHT22;778;50.120;8.698;2023-06-14T15:48:50;25.20;57.20
1570;DHT22;778;50.120;8.698;2023-06-14T15:51:19;25.10;56.50
1570;DHT22;778;50.120;8.698;2023-06-14T15:53:48;25.20;55.70
1570;DHT22;778;50.120;8.698;2023-06-14T15:56:16;25.30;55.50
1570;DHT22;778;50.120;8.698;2023-06-14T15:58:45;25.10;55.40
1570;DHT22;778;50.120;8.698;2023-06-14T16:01:15;24.80;55.80
1570;DHT22;778;50.120;8.698;2023-06-14T16:03:43;24.90;56.70
1570;DHT22;778;50.120;8.698;2023-06-14T16:06:12;24.60;56.10
1570;DHT22;778;50.120;8.698;2023-06-14T16:08:42;24.70;57.10
1570;DHT22;778;50.120;8.698;2023-06-14T16:11:11;24.80;56.20
1570;DHT22;778;50.120;8.698;2023-06-14T16:13:42;24.90;56.10
1570;DHT22;778;50.120;8.698;2023-06-14T16:16:10;24.90;56.50
1570;DHT22;778;50.120;8.698;2023-06-14T16:18:39;24.90;56.50
1570;DHT22;778;50.120;8.698;2023-06-14T16:21:08;24.90;57.20
1570;DHT22;778;50.120;8.698;2023-06-14T16:23:37;25.00;56.90
1570;DHT22;778;50.120;8.698;2023-06-14T16:26:11;25.10;57.40
1570;DHT22;778;50.120;8.698;2023-06-14T16:28:40;25.20;57.00
1570;DHT22;778;50.120;8.698;2023-06-14T16:31:11;25.20;57.10
1570;DHT22;778;50.120;8.698;2023-06-14T16:33:41;25.00;57.00
1570;DHT22;778;50.120;8.698;2023-06-14T16:36:09;24.90;57.50
1570;DHT22;778;50.120;8.698;2023-06-14T16:38:39;25.00;57.60